Aviation Digital Data Service (ADDS)

Output produced by METARs form (0058 UTC 24 May 2022)
found at http://www.aviationweather.gov/metar/data/
 
LMML 240045Z 21008KT CAVOK 20/18 Q1011 NOSIG
TAF LMML 232300Z 2400/2424 22007KT CAVOK 
     PROB30 
     TEMPO 2400/2406 6000 BKN004 
     BECMG 2409/2412 16011KT